sensor_id;sensor_type;location;lat;lon;timestamp;P1;durP1;ratioP1;P2;durP2;ratioP2
78622;SDS011;67943;54.412;9.502;2023-06-26T00:03:13;5.05;;;3.90;;
78622;SDS011;67943;54.412;9.502;2023-06-26T00:08:16;5.47;;;3.50;;
78622;SDS011;67943;54.412;9.502;2023-06-26T00:13:18;5.05;;;3.60;;
78622;SDS011;67943;54.412;9.502;2023-06-26T00:18:20;5.30;;;3.25;;
78622;SDS011;67943;54.412;9.502;2023-06-26T00:23:22;4.68;;;3.40;;
78622;SDS011;67943;54.412;9.502;2023-06-26T00:28:24;7.60;;;4.30;;
78622;SDS011;67943;54.412;9.502;2023-06-26T00:33:25;5.13;;;3.42;;
78622;SDS011;67943;54.412;9.502;2023-06-26T00:38:28;6.25;;;3.80;;
78622;SDS011;67943;54.412;9.502;2023-06-26T00:43:30;5.25;;;3.65;;
78622;SDS011;67943;54.412;9.502;2023-06-26T00:48:31;6.60;;;3.85;;
78622;SDS011;67943;54.412;9.502;2023-06-26T00:53:34;5.53;;;4.03;;
78622;SDS011;67943;54.412;9.502;2023-06-26T00:58:36;5.35;;;3.80;;
78622;SDS011;67943;54.412;9.502;2023-06-26T01:03:37;6.07;;;3.90;;
78622;SDS011;67943;54.412;9.502;2023-06-26T01:08:41;5.72;;;4.03;;
78622;SDS011;67943;54.412;9.502;2023-06-26T01:13:43;6.35;;;4.43;;
78622;SDS011;67943;54.412;9.502;2023-06-26T01:18:45;4.90;;;3.60;;
78622;SDS011;67943;54.412;9.502;2023-06-26T01:23:54;7.30;;;4.68;;
78622;SDS011;67943;54.412;9.502;2023-06-26T01:34:03;7.53;;;4.55;;
78622;SDS011;67943;54.412;9.502;2023-06-26T01:39:05;6.05;;;4.13;;
78622;SDS011;67943;54.412;9.502;2023-06-26T01:44:14;6.45;;;4.28;;
78622;SDS011;67943;54.412;9.502;2023-06-26T01:49:25;5.88;;;4.40;;
78622;SDS011;67943;54.412;9.502;2023-06-26T01:54:39;6.50;;;4.25;;
78622;SDS011;67943;54.412;9.502;2023-06-26T01:59:49;5.47;;;4.32;;
78622;SDS011;67943;54.412;9.502;2023-06-26T02:04:52;5.90;;;4.43;;
78622;SDS011;67943;54.412;9.502;2023-06-26T02:09:53;6.40;;;4.65;;
78622;SDS011;67943;54.412;9.502;2023-06-26T02:14:56;5.70;;;4.50;;
78622;SDS011;67943;54.412;9.502;2023-06-26T02:19:58;7.68;;;4.95;;
78622;SDS011;67943;54.412;9.502;2023-06-26T02:24:59;6.15;;;4.78;;
78622;SDS011;67943;54.412;9.502;2023-06-26T02:30:02;8.38;;;5.00;;
78622;SDS011;67943;54.412;9.502;2023-06-26T02:35:05;7.22;;;4.57;;
78622;SDS011;67943;54.412;9.502;2023-06-26T02:40:07;8.82;;;5.25;;
78622;SDS011;67943;54.412;9.502;2023-06-26T02:45:11;6.97;;;4.80;;
78622;SDS011;67943;54.412;9.502;2023-06-26T02:50:13;8.55;;;5.40;;
78622;SDS011;67943;54.412;9.502;2023-06-26T02:55:14;6.90;;;5.55;;
78622;SDS011;67943;54.412;9.502;2023-06-26T03:00:17;6.88;;;5.40;;
78622;SDS011;67943;54.412;9.502;2023-06-26T03:05:19;8.30;;;5.75;;
78622;SDS011;67943;54.412;9.502;2023-06-26T03:10:21;8.48;;;6.28;;
78622;SDS011;67943;54.412;9.502;2023-06-26T03:15:24;7.03;;;5.93;;
78622;SDS011;67943;54.412;9.502;2023-06-26T03:20:26;7.72;;;6.05;;
78622;SDS011;67943;54.412;9.502;2023-06-26T03:25:27;8.27;;;6.32;;
78622;SDS011;67943;54.412;9.502;2023-06-26T03:30:30;7.90;;;6.68;;
78622;SDS011;67943;54.412;9.502;2023-06-26T03:35:31;9.30;;;6.25;;
78622;SDS011;67943;54.412;9.502;2023-06-26T03:40:33;9.38;;;6.63;;
78622;SDS011;67943;54.412;9.502;2023-06-26T03:45:36;7.95;;;6.53;;
78622;SDS011;67943;54.412;9.502;2023-06-26T03:50:37;8.75;;;7.10;;
78622;SDS011;67943;54.412;9.502;2023-06-26T03:55:39;7.75;;;6.85;;
78622;SDS011;67943;54.412;9.502;2023-06-26T04:00:42;9.73;;;7.07;;
78622;SDS011;67943;54.412;9.502;2023-06-26T04:05:43;9.57;;;7.20;;
78622;SDS011;67943;54.412;9.502;2023-06-26T04:10:45;8.73;;;7.43;;
78622;SDS011;67943;54.412;9.502;2023-06-26T04:15:49;9.30;;;7.95;;
78622;SDS011;67943;54.412;9.502;2023-06-26T04:26:11;8.25;;;7.20;;
78622;SDS011;67943;54.412;9.502;2023-06-26T04:31:14;8.88;;;7.80;;
78622;SDS011;67943;54.412;9.502;2023-06-26T04:36:16;9.65;;;8.07;;
78622;SDS011;67943;54.412;9.502;2023-06-26T04:41:18;9.18;;;7.47;;
78622;SDS011;67943;54.412;9.502;2023-06-26T04:46:20;8.35;;;6.95;;
78622;SDS011;67943;54.412;9.502;2023-06-26T04:51:22;9.07;;;7.43;;
78622;SDS011;67943;54.412;9.502;2023-06-26T04:56:23;8.10;;;6.38;;
78622;SDS011;67943;54.412;9.502;2023-06-26T05:01:26;11.27;;;7.28;;
78622;SDS011;67943;54.412;9.502;2023-06-26T05:06:29;9.75;;;7.30;;
78622;SDS011;67943;54.412;9.502;2023-06-26T05:11:31;9.43;;;6.95;;
78622;SDS011;67943;54.412;9.502;2023-06-26T05:16:34;7.75;;;6.93;;
78622;SDS011;67943;54.412;9.502;2023-06-26T05:21:35;7.95;;;6.15;;
78622;SDS011;67943;54.412;9.502;2023-06-26T05:26:37;8.65;;;7.20;;
78622;SDS011;67943;54.412;9.502;2023-06-26T05:31:41;8.27;;;7.07;;
78622;SDS011;67943;54.412;9.502;2023-06-26T05:36:43;9.07;;;7.07;;
78622;SDS011;67943;54.412;9.502;2023-06-26T05:41:45;9.38;;;7.57;;
78622;SDS011;67943;54.412;9.502;2023-06-26T05:46:48;7.82;;;6.53;;
78622;SDS011;67943;54.412;9.502;2023-06-26T05:51:49;8.35;;;6.75;;
78622;SDS011;67943;54.412;9.502;2023-06-26T05:56:51;8.30;;;5.97;;
78622;SDS011;67943;54.412;9.502;2023-06-26T06:02:00;7.95;;;6.55;;
78622;SDS011;67943;54.412;9.502;2023-06-26T06:07:02;8.85;;;6.32;;
78622;SDS011;67943;54.412;9.502;2023-06-26T06:12:04;7.95;;;6.60;;
78622;SDS011;67943;54.412;9.502;2023-06-26T06:17:07;7.85;;;6.72;;
78622;SDS011;67943;54.412;9.502;2023-06-26T06:22:08;8.95;;;6.55;;
78622;SDS011;67943;54.412;9.502;2023-06-26T06:27:10;7.97;;;6.53;;
78622;SDS011;67943;54.412;9.502;2023-06-26T06:32:13;8.40;;;6.57;;
78622;SDS011;67943;54.412;9.502;2023-06-26T06:37:14;7.43;;;6.00;;
78622;SDS011;67943;54.412;9.502;2023-06-26T06:42:16;9.90;;;6.10;;
78622;SDS011;67943;54.412;9.502;2023-06-26T06:47:18;6.90;;;6.13;;
78622;SDS011;67943;54.412;9.502;2023-06-26T06:52:20;6.63;;;5.80;;
78622;SDS011;67943;54.412;9.502;2023-06-26T06:57:21;8.25;;;6.28;;
78622;SDS011;67943;54.412;9.502;2023-06-26T07:02:24;8.23;;;5.55;;
78622;SDS011;67943;54.412;9.502;2023-06-26T07:07:27;6.40;;;5.53;;
78622;SDS011;67943;54.412;9.502;2023-06-26T07:12:31;10.02;;;6.30;;
78622;SDS011;67943;54.412;9.502;2023-06-26T07:17:34;8.43;;;6.28;;
78622;SDS011;67943;54.412;9.502;2023-06-26T07:22:37;7.25;;;5.80;;
78622;SDS011;67943;54.412;9.502;2023-06-26T07:27:39;8.60;;;5.63;;
78622;SDS011;67943;54.412;9.502;2023-06-26T07:32:44;6.05;;;5.22;;
78622;SDS011;67943;54.412;9.502;2023-06-26T07:37:46;6.35;;;5.68;;
78622;SDS011;67943;54.412;9.502;2023-06-26T07:42:47;8.10;;;5.75;;
78622;SDS011;67943;54.412;9.502;2023-06-26T07:47:50;6.03;;;5.43;;
78622;SDS011;67943;54.412;9.502;2023-06-26T07:52:51;5.82;;;5.20;;
78622;SDS011;67943;54.412;9.502;2023-06-26T07:58:10;5.75;;;5.15;;
78622;SDS011;67943;54.412;9.502;2023-06-26T08:03:13;6.97;;;5.75;;
78622;SDS011;67943;54.412;9.502;2023-06-26T08:08:14;9.50;;;6.10;;
78622;SDS011;67943;54.412;9.502;2023-06-26T08:13:16;7.55;;;6.53;;
78622;SDS011;67943;54.412;9.502;2023-06-26T08:18:19;8.48;;;6.80;;
78622;SDS011;67943;54.412;9.502;2023-06-26T08:23:20;8.25;;;7.05;;
78622;SDS011;67943;54.412;9.502;2023-06-26T08:28:23;8.73;;;6.88;;
78622;SDS011;67943;54.412;9.502;2023-06-26T08:33:25;8.88;;;7.10;;
78622;SDS011;67943;54.412;9.502;2023-06-26T08:38:27;11.38;;;8.55;;
78622;SDS011;67943;54.412;9.502;2023-06-26T08:43:29;12.50;;;10.13;;
78622;SDS011;67943;54.412;9.502;2023-06-26T08:48:32;18.90;;;11.75;;
78622;SDS011;67943;54.412;9.502;2023-06-26T08:53:36;15.57;;;8.68;;
78622;SDS011;67943;54.412;9.502;2023-06-26T08:58:44;7.63;;;4.97;;
78622;SDS011;67943;54.412;9.502;2023-06-26T09:03:48;9.05;;;4.85;;
78622;SDS011;67943;54.412;9.502;2023-06-26T09:08:49;10.35;;;5.30;;
78622;SDS011;67943;54.412;9.502;2023-06-26T09:13:51;7.78;;;5.15;;
78622;SDS011;67943;54.412;9.502;2023-06-26T09:18:55;9.30;;;5.60;;
78622;SDS011;67943;54.412;9.502;2023-06-26T09:23:57;8.07;;;5.45;;
78622;SDS011;67943;54.412;9.502;2023-06-26T09:28:59;9.40;;;5.07;;
78622;SDS011;67943;54.412;9.502;2023-06-26T09:34:02;9.48;;;5.82;;
78622;SDS011;67943;54.412;9.502;2023-06-26T09:39:05;13.50;;;6.35;;
78622;SDS011;67943;54.412;9.502;2023-06-26T09:44:11;13.77;;;7.03;;
78622;SDS011;67943;54.412;9.502;2023-06-26T09:49:16;12.43;;;6.35;;
78622;SDS011;67943;54.412;9.502;2023-06-26T09:54:17;13.02;;;6.68;;
78622;SDS011;67943;54.412;9.502;2023-06-26T09:59:22;14.25;;;6.85;;
78622;SDS011;67943;54.412;9.502;2023-06-26T10:04:26;12.55;;;7.00;;
78622;SDS011;67943;54.412;9.502;2023-06-26T10:09:27;12.57;;;7.32;;
78622;SDS011;67943;54.412;9.502;2023-06-26T10:14:32;10.85;;;7.05;;
78622;SDS011;67943;54.412;9.502;2023-06-26T10:19:37;16.67;;;7.70;;
78622;SDS011;67943;54.412;9.502;2023-06-26T10:24:41;11.57;;;7.38;;
78622;SDS011;67943;54.412;9.502;2023-06-26T10:29:44;15.18;;;7.93;;
78622;SDS011;67943;54.412;9.502;2023-06-26T10:34:50;14.00;;;7.65;;
78622;SDS011;67943;54.412;9.502;2023-06-26T10:39:52;11.45;;;7.18;;
78622;SDS011;67943;54.412;9.502;2023-06-26T10:44:54;12.07;;;7.53;;
78622;SDS011;67943;54.412;9.502;2023-06-26T10:50:13;15.38;;;6.55;;
78622;SDS011;67943;54.412;9.502;2023-06-26T10:55:18;12.85;;;6.38;;
78622;SDS011;67943;54.412;9.502;2023-06-26T11:00:28;16.98;;;6.45;;
78622;SDS011;67943;54.412;9.502;2023-06-26T11:05:32;12.38;;;5.25;;
78622;SDS011;67943;54.412;9.502;2023-06-26T11:15:52;10.57;;;2.95;;
78622;SDS011;67943;54.412;9.502;2023-06-26T11:21:05;11.02;;;2.30;;
78622;SDS011;67943;54.412;9.502;2023-06-26T11:26:13;9.90;;;2.85;;
78622;SDS011;67943;54.412;9.502;2023-06-26T11:36:38;8.40;;;2.10;;
78622;SDS011;67943;54.412;9.502;2023-06-26T11:41:42;9.32;;;2.28;;
78622;SDS011;67943;54.412;9.502;2023-06-26T11:46:46;7.00;;;2.47;;
78622;SDS011;67943;54.412;9.502;2023-06-26T11:51:50;8.45;;;2.50;;
78622;SDS011;67943;54.412;9.502;2023-06-26T11:56:52;9.00;;;2.50;;
78622;SDS011;67943;54.412;9.502;2023-06-26T12:01:56;8.40;;;2.17;;
78622;SDS011;67943;54.412;9.502;2023-06-26T12:06:59;6.68;;;2.00;;
78622;SDS011;67943;54.412;9.502;2023-06-26T12:12:05;7.68;;;2.00;;
78622;SDS011;67943;54.412;9.502;2023-06-26T12:17:08;7.20;;;2.28;;
78622;SDS011;67943;54.412;9.502;2023-06-26T12:22:12;5.55;;;1.90;;
78622;SDS011;67943;54.412;9.502;2023-06-26T12:27:14;6.93;;;1.70;;
78622;SDS011;67943;54.412;9.502;2023-06-26T12:32:17;8.07;;;1.85;;
78622;SDS011;67943;54.412;9.502;2023-06-26T12:37:19;4.10;;;1.30;;
78622;SDS011;67943;54.412;9.502;2023-06-26T12:42:21;5.88;;;1.60;;
78622;SDS011;67943;54.412;9.502;2023-06-26T12:47:25;8.23;;;1.88;;
78622;SDS011;67943;54.412;9.502;2023-06-26T12:52:28;7.15;;;1.75;;
78622;SDS011;67943;54.412;9.502;2023-06-26T12:57:30;5.60;;;1.77;;
78622;SDS011;67943;54.412;9.502;2023-06-26T13:02:32;5.93;;;1.75;;
78622;SDS011;67943;54.412;9.502;2023-06-26T13:07:34;6.72;;;1.80;;
78622;SDS011;67943;54.412;9.502;2023-06-26T13:12:36;7.30;;;1.50;;
78622;SDS011;67943;54.412;9.502;2023-06-26T13:17:37;6.75;;;2.00;;
78622;SDS011;67943;54.412;9.502;2023-06-26T13:22:40;4.82;;;1.77;;
78622;SDS011;67943;54.412;9.502;2023-06-26T13:27:41;5.75;;;1.50;;
78622;SDS011;67943;54.412;9.502;2023-06-26T13:32:43;6.68;;;1.50;;
78622;SDS011;67943;54.412;9.502;2023-06-26T13:37:46;2.97;;;1.30;;
78622;SDS011;67943;54.412;9.502;2023-06-26T13:42:48;3.80;;;1.50;;
78622;SDS011;67943;54.412;9.502;2023-06-26T13:47:49;5.75;;;1.38;;
78622;SDS011;67943;54.412;9.502;2023-06-26T13:52:52;6.13;;;1.98;;
78622;SDS011;67943;54.412;9.502;2023-06-26T13:57:53;7.43;;;1.83;;
78622;SDS011;67943;54.412;9.502;2023-06-26T14:02:56;6.65;;;1.67;;
78622;SDS011;67943;54.412;9.502;2023-06-26T14:07:59;9.80;;;1.60;;
78622;SDS011;67943;54.412;9.502;2023-06-26T14:13:00;6.50;;;1.90;;
78622;SDS011;67943;54.412;9.502;2023-06-26T14:18:03;5.93;;;1.50;;
78622;SDS011;67943;54.412;9.502;2023-06-26T14:23:06;7.22;;;1.77;;
78622;SDS011;67943;54.412;9.502;2023-06-26T14:28:07;5.82;;;1.50;;
78622;SDS011;67943;54.412;9.502;2023-06-26T14:33:09;6.90;;;1.52;;
78622;SDS011;67943;54.412;9.502;2023-06-26T14:38:12;4.85;;;1.58;;
78622;SDS011;67943;54.412;9.502;2023-06-26T14:43:14;4.90;;;1.23;;
78622;SDS011;67943;54.412;9.502;2023-06-26T14:48:16;4.90;;;1.50;;
78622;SDS011;67943;54.412;9.502;2023-06-26T14:53:20;5.72;;;2.13;;
78622;SDS011;67943;54.412;9.502;2023-06-26T14:58:22;4.43;;;2.17;;
78622;SDS011;67943;54.412;9.502;2023-06-26T15:03:23;2.60;;;1.35;;
78622;SDS011;67943;54.412;9.502;2023-06-26T15:08:26;6.20;;;1.80;;
78622;SDS011;67943;54.412;9.502;2023-06-26T15:13:28;5.55;;;1.67;;
78622;SDS011;67943;54.412;9.502;2023-06-26T15:18:30;5.30;;;1.55;;
78622;SDS011;67943;54.412;9.502;2023-06-26T15:23:32;8.77;;;1.52;;
78622;SDS011;67943;54.412;9.502;2023-06-26T15:28:34;6.35;;;1.80;;
78622;SDS011;67943;54.412;9.502;2023-06-26T15:33:36;7.32;;;1.85;;
78622;SDS011;67943;54.412;9.502;2023-06-26T15:38:39;7.43;;;1.63;;
78622;SDS011;67943;54.412;9.502;2023-06-26T15:43:40;9.18;;;1.58;;
78622;SDS011;67943;54.412;9.502;2023-06-26T15:48:43;6.82;;;1.70;;
78622;SDS011;67943;54.412;9.502;2023-06-26T15:53:46;10.07;;;1.90;;
78622;SDS011;67943;54.412;9.502;2023-06-26T15:58:47;8.85;;;1.60;;
78622;SDS011;67943;54.412;9.502;2023-06-26T16:03:49;5.47;;;1.55;;
78622;SDS011;67943;54.412;9.502;2023-06-26T16:08:52;9.68;;;2.00;;
78622;SDS011;67943;54.412;9.502;2023-06-26T16:13:53;8.55;;;2.22;;
78622;SDS011;67943;54.412;9.502;2023-06-26T16:18:55;8.18;;;1.88;;
78622;SDS011;67943;54.412;9.502;2023-06-26T16:23:58;6.85;;;1.80;;
78622;SDS011;67943;54.412;9.502;2023-06-26T16:29:01;6.15;;;1.55;;
78622;SDS011;67943;54.412;9.502;2023-06-26T16:34:04;9.13;;;1.75;;
78622;SDS011;67943;54.412;9.502;2023-06-26T16:39:26;5.75;;;1.65;;
78622;SDS011;67943;54.412;9.502;2023-06-26T16:44:27;6.38;;;1.65;;
78622;SDS011;67943;54.412;9.502;2023-06-26T16:49:29;8.27;;;2.10;;
78622;SDS011;67943;54.412;9.502;2023-06-26T16:54:32;8.13;;;2.10;;
78622;SDS011;67943;54.412;9.502;2023-06-26T16:59:33;9.10;;;2.13;;
78622;SDS011;67943;54.412;9.502;2023-06-26T17:04:35;8.90;;;1.88;;
78622;SDS011;67943;54.412;9.502;2023-06-26T17:09:38;6.82;;;1.70;;
78622;SDS011;67943;54.412;9.502;2023-06-26T17:14:39;6.22;;;1.63;;
78622;SDS011;67943;54.412;9.502;2023-06-26T17:19:41;6.70;;;2.00;;
78622;SDS011;67943;54.412;9.502;2023-06-26T17:24:44;7.65;;;1.60;;
78622;SDS011;67943;54.412;9.502;2023-06-26T17:29:46;7.38;;;1.90;;
78622;SDS011;67943;54.412;9.502;2023-06-26T17:34:47;8.45;;;1.90;;
78622;SDS011;67943;54.412;9.502;2023-06-26T17:39:50;8.35;;;1.92;;
78622;SDS011;67943;54.412;9.502;2023-06-26T17:44:52;7.20;;;1.80;;
78622;SDS011;67943;54.412;9.502;2023-06-26T17:49:54;12.43;;;2.42;;
78622;SDS011;67943;54.412;9.502;2023-06-26T17:54:57;6.90;;;1.73;;
78622;SDS011;67943;54.412;9.502;2023-06-26T17:59:59;6.38;;;1.70;;
78622;SDS011;67943;54.412;9.502;2023-06-26T18:05:00;8.05;;;1.80;;
78622;SDS011;67943;54.412;9.502;2023-06-26T18:10:04;6.47;;;1.58;;
78622;SDS011;67943;54.412;9.502;2023-06-26T18:15:07;7.53;;;1.90;;
78622;SDS011;67943;54.412;9.502;2023-06-26T18:20:08;9.32;;;1.92;;
78622;SDS011;67943;54.412;9.502;2023-06-26T18:25:12;9.18;;;2.00;;
78622;SDS011;67943;54.412;9.502;2023-06-26T18:30:13;11.68;;;2.53;;
78622;SDS011;67943;54.412;9.502;2023-06-26T18:35:15;8.27;;;1.98;;
78622;SDS011;67943;54.412;9.502;2023-06-26T18:40:18;7.53;;;2.10;;
78622;SDS011;67943;54.412;9.502;2023-06-26T18:45:20;9.75;;;2.13;;
78622;SDS011;67943;54.412;9.502;2023-06-26T18:50:21;6.20;;;1.73;;
78622;SDS011;67943;54.412;9.502;2023-06-26T18:55:28;9.48;;;2.45;;
78622;SDS011;67943;54.412;9.502;2023-06-26T19:00:32;8.98;;;1.98;;
78622;SDS011;67943;54.412;9.502;2023-06-26T19:05:33;12.43;;;2.05;;
78622;SDS011;67943;54.412;9.502;2023-06-26T19:10:36;11.05;;;2.10;;
78622;SDS011;67943;54.412;9.502;2023-06-26T19:15:38;8.07;;;1.73;;
78622;SDS011;67943;54.412;9.502;2023-06-26T19:20:39;7.20;;;2.00;;
78622;SDS011;67943;54.412;9.502;2023-06-26T19:25:42;9.68;;;1.95;;
78622;SDS011;67943;54.412;9.502;2023-06-26T19:30:44;11.07;;;2.75;;
78622;SDS011;67943;54.412;9.502;2023-06-26T19:35:45;14.30;;;2.30;;
78622;SDS011;67943;54.412;9.502;2023-06-26T19:40:48;8.57;;;2.15;;
78622;SDS011;67943;54.412;9.502;2023-06-26T19:45:50;7.25;;;2.10;;
78622;SDS011;67943;54.412;9.502;2023-06-26T19:50:52;12.43;;;2.67;;
78622;SDS011;67943;54.412;9.502;2023-06-26T19:55:54;8.98;;;2.35;;
78622;SDS011;67943;54.412;9.502;2023-06-26T20:00:56;9.48;;;2.25;;
78622;SDS011;67943;54.412;9.502;2023-06-26T20:05:57;8.88;;;2.05;;
78622;SDS011;67943;54.412;9.502;2023-06-26T20:11:01;7.88;;;2.10;;
78622;SDS011;67943;54.412;9.502;2023-06-26T20:16:03;13.40;;;2.30;;
78622;SDS011;67943;54.412;9.502;2023-06-26T20:21:04;10.48;;;2.20;;
78622;SDS011;67943;54.412;9.502;2023-06-26T20:26:07;9.73;;;2.25;;
78622;SDS011;67943;54.412;9.502;2023-06-26T20:31:09;8.80;;;2.22;;
78622;SDS011;67943;54.412;9.502;2023-06-26T20:36:11;11.38;;;2.50;;
78622;SDS011;67943;54.412;9.502;2023-06-26T20:41:14;11.65;;;2.45;;
78622;SDS011;67943;54.412;9.502;2023-06-26T20:46:16;8.88;;;2.08;;
78622;SDS011;67943;54.412;9.502;2023-06-26T20:51:18;13.18;;;2.47;;
78622;SDS011;67943;54.412;9.502;2023-06-26T20:56:26;11.13;;;2.65;;
78622;SDS011;67943;54.412;9.502;2023-06-26T21:01:28;10.68;;;2.55;;
78622;SDS011;67943;54.412;9.502;2023-06-26T21:06:30;10.63;;;3.17;;
78622;SDS011;67943;54.412;9.502;2023-06-26T21:11:32;9.93;;;2.65;;
78622;SDS011;67943;54.412;9.502;2023-06-26T21:16:34;8.25;;;3.00;;
78622;SDS011;67943;54.412;9.502;2023-06-26T21:21:35;6.72;;;2.45;;
78622;SDS011;67943;54.412;9.502;2023-06-26T21:26:38;11.60;;;2.60;;
78622;SDS011;67943;54.412;9.502;2023-06-26T21:31:40;7.30;;;2.42;;
78622;SDS011;67943;54.412;9.502;2023-06-26T21:36:42;9.65;;;2.80;;
78622;SDS011;67943;54.412;9.502;2023-06-26T21:41:45;8.85;;;2.58;;
78622;SDS011;67943;54.412;9.502;2023-06-26T21:46:46;12.70;;;2.70;;
78622;SDS011;67943;54.412;9.502;2023-06-26T21:51:48;10.30;;;2.80;;
78622;SDS011;67943;54.412;9.502;2023-06-26T21:56:51;12.70;;;3.30;;
78622;SDS011;67943;54.412;9.502;2023-06-26T22:01:52;10.30;;;2.70;;
78622;SDS011;67943;54.412;9.502;2023-06-26T22:06:53;8.63;;;2.60;;
78622;SDS011;67943;54.412;9.502;2023-06-26T22:11:56;10.57;;;2.83;;
78622;SDS011;67943;54.412;9.502;2023-06-26T22:16:58;9.48;;;2.70;;
78622;SDS011;67943;54.412;9.502;2023-06-26T22:22:00;7.18;;;2.50;;
78622;SDS011;67943;54.412;9.502;2023-06-26T22:27:03;9.27;;;2.70;;
78622;SDS011;67943;54.412;9.502;2023-06-26T22:32:05;12.02;;;3.10;;
78622;SDS011;67943;54.412;9.502;2023-06-26T22:37:07;12.80;;;3.15;;
78622;SDS011;67943;54.412;9.502;2023-06-26T22:42:10;10.57;;;2.60;;
78622;SDS011;67943;54.412;9.502;2023-06-26T22:47:11;6.50;;;2.60;;
78622;SDS011;67943;54.412;9.502;2023-06-26T22:52:14;11.25;;;2.58;;
78622;SDS011;67943;54.412;9.502;2023-06-26T22:57:16;4.72;;;2.38;;
78622;SDS011;67943;54.412;9.502;2023-06-26T23:02:18;6.80;;;2.50;;
78622;SDS011;67943;54.412;9.502;2023-06-26T23:07:20;9.40;;;2.42;;
78622;SDS011;67943;54.412;9.502;2023-06-26T23:12:22;9.85;;;2.45;;
78622;SDS011;67943;54.412;9.502;2023-06-26T23:17:24;8.20;;;2.70;;
78622;SDS011;67943;54.412;9.502;2023-06-26T23:22:25;7.53;;;2.50;;
78622;SDS011;67943;54.412;9.502;2023-06-26T23:27:28;8.23;;;2.75;;
78622;SDS011;67943;54.412;9.502;2023-06-26T23:32:29;9.23;;;2.90;;
78622;SDS011;67943;54.412;9.502;2023-06-26T23:37:31;9.40;;;2.80;;
78622;SDS011;67943;54.412;9.502;2023-06-26T23:42:34;7.88;;;2.92;;
78622;SDS011;67943;54.412;9.502;2023-06-26T23:47:36;10.00;;;2.95;;
78622;SDS011;67943;54.412;9.502;2023-06-26T23:52:39;7.22;;;2.50;;
78622;SDS011;67943;54.412;9.502;2023-06-26T23:57:42;9.77;;;2.90;;
